sensor_id;sensor_type;location;lat;lon;timestamp;P1;durP1;ratioP1;P2;durP2;ratioP2
25581;SDS011;13462;50.764;4.332;2022-07-17T00:00:44;5.05;;;2.53;;
25581;SDS011;13462;50.764;4.332;2022-07-17T00:03:14;4.82;;;2.50;;
25581;SDS011;13462;50.764;4.332;2022-07-17T00:05:41;7.80;;;2.47;;
25581;SDS011;13462;50.764;4.332;2022-07-17T00:08:08;4.28;;;2.15;;
25581;SDS011;13462;50.764;4.332;2022-07-17T00:10:34;6.20;;;2.45;;
25581;SDS011;13462;50.764;4.332;2022-07-17T00:13:01;4.70;;;2.25;;
25581;SDS011;13462;50.764;4.332;2022-07-17T00:15:28;6.25;;;2.30;;
25581;SDS011;13462;50.764;4.332;2022-07-17T00:17:54;4.53;;;2.25;;
25581;SDS011;13462;50.764;4.332;2022-07-17T00:20:20;6.13;;;2.63;;
25581;SDS011;13462;50.764;4.332;2022-07-17T00:22:46;4.15;;;2.53;;
25581;SDS011;13462;50.764;4.332;2022-07-17T00:25:12;5.22;;;2.60;;
25581;SDS011;13462;50.764;4.332;2022-07-17T00:27:38;3.30;;;2.40;;
25581;SDS011;13462;50.764;4.332;2022-07-17T00:30:04;10.02;;;2.47;;
25581;SDS011;13462;50.764;4.332;2022-07-17T00:32:31;10.65;;;2.72;;
25581;SDS011;13462;50.764;4.332;2022-07-17T00:34:57;9.63;;;3.20;;
25581;SDS011;13462;50.764;4.332;2022-07-17T00:37:23;4.05;;;2.33;;
25581;SDS011;13462;50.764;4.332;2022-07-17T00:39:49;5.28;;;2.30;;
25581;SDS011;13462;50.764;4.332;2022-07-17T00:42:15;5.70;;;2.70;;
25581;SDS011;13462;50.764;4.332;2022-07-17T00:44:42;4.95;;;2.17;;
25581;SDS011;13462;50.764;4.332;2022-07-17T00:47:15;7.40;;;2.67;;
25581;SDS011;13462;50.764;4.332;2022-07-17T00:49:46;9.55;;;3.38;;
25581;SDS011;13462;50.764;4.332;2022-07-17T00:52:12;7.13;;;2.53;;
25581;SDS011;13462;50.764;4.332;2022-07-17T00:54:39;3.67;;;2.80;;
25581;SDS011;13462;50.764;4.332;2022-07-17T00:57:07;12.25;;;2.85;;
25581;SDS011;13462;50.764;4.332;2022-07-17T00:59:35;6.10;;;2.38;;
25581;SDS011;13462;50.764;4.332;2022-07-17T01:02:04;5.25;;;2.92;;
25581;SDS011;13462;50.764;4.332;2022-07-17T01:04:31;6.07;;;2.78;;
25581;SDS011;13462;50.764;4.332;2022-07-17T01:06:58;9.02;;;3.20;;
25581;SDS011;13462;50.764;4.332;2022-07-17T01:09:25;7.78;;;2.92;;
25581;SDS011;13462;50.764;4.332;2022-07-17T01:11:55;9.23;;;3.10;;
25581;SDS011;13462;50.764;4.332;2022-07-17T01:14:22;5.25;;;2.70;;
25581;SDS011;13462;50.764;4.332;2022-07-17T01:16:49;5.82;;;2.80;;
25581;SDS011;13462;50.764;4.332;2022-07-17T01:19:18;5.22;;;2.35;;
25581;SDS011;13462;50.764;4.332;2022-07-17T01:21:45;4.57;;;2.55;;
25581;SDS011;13462;50.764;4.332;2022-07-17T01:24:13;11.25;;;2.97;;
25581;SDS011;13462;50.764;4.332;2022-07-17T01:26:48;5.55;;;2.83;;
25581;SDS011;13462;50.764;4.332;2022-07-17T01:29:14;8.07;;;3.05;;
25581;SDS011;13462;50.764;4.332;2022-07-17T01:31:41;4.15;;;2.85;;
25581;SDS011;13462;50.764;4.332;2022-07-17T01:34:08;7.05;;;3.03;;
25581;SDS011;13462;50.764;4.332;2022-07-17T01:36:35;6.82;;;3.13;;
25581;SDS011;13462;50.764;4.332;2022-07-17T01:39:02;4.15;;;2.78;;
25581;SDS011;13462;50.764;4.332;2022-07-17T01:41:28;5.72;;;2.78;;
25581;SDS011;13462;50.764;4.332;2022-07-17T01:43:54;8.32;;;2.88;;
25581;SDS011;13462;50.764;4.332;2022-07-17T01:46:20;5.00;;;2.80;;
25581;SDS011;13462;50.764;4.332;2022-07-17T01:48:46;5.22;;;3.10;;
25581;SDS011;13462;50.764;4.332;2022-07-17T01:51:11;3.38;;;2.60;;
25581;SDS011;13462;50.764;4.332;2022-07-17T01:53:37;3.63;;;2.67;;
25581;SDS011;13462;50.764;4.332;2022-07-17T01:56:03;6.72;;;2.60;;
25581;SDS011;13462;50.764;4.332;2022-07-17T01:58:28;4.90;;;3.08;;
25581;SDS011;13462;50.764;4.332;2022-07-17T02:00:54;7.28;;;2.75;;
25581;SDS011;13462;50.764;4.332;2022-07-17T02:03:20;4.63;;;2.92;;
25581;SDS011;13462;50.764;4.332;2022-07-17T02:05:46;10.45;;;3.05;;
25581;SDS011;13462;50.764;4.332;2022-07-17T02:08:12;6.32;;;2.75;;
25581;SDS011;13462;50.764;4.332;2022-07-17T02:10:38;4.97;;;2.70;;
25581;SDS011;13462;50.764;4.332;2022-07-17T02:13:04;6.90;;;3.20;;
25581;SDS011;13462;50.764;4.332;2022-07-17T02:15:30;7.47;;;2.78;;
25581;SDS011;13462;50.764;4.332;2022-07-17T02:17:56;5.93;;;3.17;;
25581;SDS011;13462;50.764;4.332;2022-07-17T02:20:22;5.38;;;2.50;;
25581;SDS011;13462;50.764;4.332;2022-07-17T02:22:48;7.82;;;2.55;;
25581;SDS011;13462;50.764;4.332;2022-07-17T02:25:14;6.68;;;2.65;;
25581;SDS011;13462;50.764;4.332;2022-07-17T02:27:40;7.90;;;2.80;;
25581;SDS011;13462;50.764;4.332;2022-07-17T02:30:11;7.65;;;3.20;;
25581;SDS011;13462;50.764;4.332;2022-07-17T02:32:41;5.18;;;2.88;;
25581;SDS011;13462;50.764;4.332;2022-07-17T02:35:08;7.60;;;3.33;;
25581;SDS011;13462;50.764;4.332;2022-07-17T02:37:35;8.20;;;3.38;;
25581;SDS011;13462;50.764;4.332;2022-07-17T02:40:02;9.40;;;2.60;;
25581;SDS011;13462;50.764;4.332;2022-07-17T02:42:29;8.52;;;2.92;;
25581;SDS011;13462;50.764;4.332;2022-07-17T02:44:55;8.32;;;3.20;;
25581;SDS011;13462;50.764;4.332;2022-07-17T02:47:27;7.53;;;2.83;;
25581;SDS011;13462;50.764;4.332;2022-07-17T02:52:20;8.02;;;2.92;;
25581;SDS011;13462;50.764;4.332;2022-07-17T02:54:46;8.82;;;2.75;;
25581;SDS011;13462;50.764;4.332;2022-07-17T02:57:12;9.57;;;3.03;;
25581;SDS011;13462;50.764;4.332;2022-07-17T02:59:38;9.68;;;3.13;;
25581;SDS011;13462;50.764;4.332;2022-07-17T03:02:04;8.63;;;2.90;;
25581;SDS011;13462;50.764;4.332;2022-07-17T03:04:30;8.27;;;3.45;;
25581;SDS011;13462;50.764;4.332;2022-07-17T03:06:56;9.85;;;3.25;;
25581;SDS011;13462;50.764;4.332;2022-07-17T03:09:22;7.38;;;3.10;;
25581;SDS011;13462;50.764;4.332;2022-07-17T03:11:48;7.40;;;2.60;;
25581;SDS011;13462;50.764;4.332;2022-07-17T03:14:13;6.30;;;2.78;;
25581;SDS011;13462;50.764;4.332;2022-07-17T03:16:39;5.93;;;2.78;;
25581;SDS011;13462;50.764;4.332;2022-07-17T03:19:05;7.38;;;3.03;;
25581;SDS011;13462;50.764;4.332;2022-07-17T03:21:30;5.47;;;3.20;;
25581;SDS011;13462;50.764;4.332;2022-07-17T03:23:56;11.13;;;3.25;;
25581;SDS011;13462;50.764;4.332;2022-07-17T03:26:22;14.30;;;3.45;;
25581;SDS011;13462;50.764;4.332;2022-07-17T03:28:47;6.32;;;2.90;;
25581;SDS011;13462;50.764;4.332;2022-07-17T03:31:13;5.43;;;2.70;;
25581;SDS011;13462;50.764;4.332;2022-07-17T03:33:39;7.40;;;2.85;;
25581;SDS011;13462;50.764;4.332;2022-07-17T03:36:04;9.35;;;3.10;;
25581;SDS011;13462;50.764;4.332;2022-07-17T03:38:31;9.55;;;2.63;;
25581;SDS011;13462;50.764;4.332;2022-07-17T03:40:57;6.60;;;2.72;;
25581;SDS011;13462;50.764;4.332;2022-07-17T03:43:22;7.05;;;3.30;;
25581;SDS011;13462;50.764;4.332;2022-07-17T03:45:48;9.05;;;3.40;;
25581;SDS011;13462;50.764;4.332;2022-07-17T03:48:13;4.88;;;2.58;;
25581;SDS011;13462;50.764;4.332;2022-07-17T03:50:39;12.48;;;3.00;;
25581;SDS011;13462;50.764;4.332;2022-07-17T03:53:05;6.00;;;2.85;;
25581;SDS011;13462;50.764;4.332;2022-07-17T03:55:30;10.55;;;3.00;;
25581;SDS011;13462;50.764;4.332;2022-07-17T03:57:56;6.18;;;2.85;;
25581;SDS011;13462;50.764;4.332;2022-07-17T04:00:22;7.43;;;3.08;;
25581;SDS011;13462;50.764;4.332;2022-07-17T04:02:47;8.30;;;3.20;;
25581;SDS011;13462;50.764;4.332;2022-07-17T04:05:13;5.88;;;2.53;;
25581;SDS011;13462;50.764;4.332;2022-07-17T04:07:39;6.18;;;2.83;;
25581;SDS011;13462;50.764;4.332;2022-07-17T04:10:06;7.95;;;2.65;;
25581;SDS011;13462;50.764;4.332;2022-07-17T04:12:33;7.03;;;3.58;;
25581;SDS011;13462;50.764;4.332;2022-07-17T04:14:59;7.53;;;3.22;;
25581;SDS011;13462;50.764;4.332;2022-07-17T04:17:25;7.30;;;3.10;;
25581;SDS011;13462;50.764;4.332;2022-07-17T04:19:51;3.92;;;2.67;;
25581;SDS011;13462;50.764;4.332;2022-07-17T04:22:17;9.35;;;3.00;;
25581;SDS011;13462;50.764;4.332;2022-07-17T04:24:43;7.55;;;3.25;;
25581;SDS011;13462;50.764;4.332;2022-07-17T04:27:08;5.07;;;3.20;;
25581;SDS011;13462;50.764;4.332;2022-07-17T04:29:34;16.63;;;3.75;;
25581;SDS011;13462;50.764;4.332;2022-07-17T04:32:01;8.93;;;3.55;;
25581;SDS011;13462;50.764;4.332;2022-07-17T04:34:27;8.32;;;3.40;;
25581;SDS011;13462;50.764;4.332;2022-07-17T04:36:52;5.72;;;2.70;;
25581;SDS011;13462;50.764;4.332;2022-07-17T04:39:18;8.02;;;3.25;;
25581;SDS011;13462;50.764;4.332;2022-07-17T04:41:44;8.48;;;2.97;;
25581;SDS011;13462;50.764;4.332;2022-07-17T04:44:09;6.45;;;2.78;;
25581;SDS011;13462;50.764;4.332;2022-07-17T04:46:35;9.77;;;3.15;;
25581;SDS011;13462;50.764;4.332;2022-07-17T04:49:00;5.22;;;3.30;;
25581;SDS011;13462;50.764;4.332;2022-07-17T04:51:26;4.70;;;2.75;;
25581;SDS011;13462;50.764;4.332;2022-07-17T04:53:51;6.53;;;2.75;;
25581;SDS011;13462;50.764;4.332;2022-07-17T04:56:17;13.45;;;3.78;;
25581;SDS011;13462;50.764;4.332;2022-07-17T04:58:43;4.50;;;3.00;;
25581;SDS011;13462;50.764;4.332;2022-07-17T05:01:08;6.82;;;2.53;;
25581;SDS011;13462;50.764;4.332;2022-07-17T05:03:34;6.18;;;2.75;;
25581;SDS011;13462;50.764;4.332;2022-07-17T05:06:00;7.50;;;2.72;;
25581;SDS011;13462;50.764;4.332;2022-07-17T05:08:25;6.93;;;2.60;;
25581;SDS011;13462;50.764;4.332;2022-07-17T05:10:51;7.82;;;2.45;;
25581;SDS011;13462;50.764;4.332;2022-07-17T05:13:17;9.90;;;2.97;;
25581;SDS011;13462;50.764;4.332;2022-07-17T05:15:42;5.43;;;2.55;;
25581;SDS011;13462;50.764;4.332;2022-07-17T05:18:08;13.80;;;3.58;;
25581;SDS011;13462;50.764;4.332;2022-07-17T05:20:33;7.53;;;2.70;;
25581;SDS011;13462;50.764;4.332;2022-07-17T05:22:59;8.70;;;3.58;;
25581;SDS011;13462;50.764;4.332;2022-07-17T05:25:25;6.35;;;2.85;;
25581;SDS011;13462;50.764;4.332;2022-07-17T05:27:50;9.73;;;2.90;;
25581;SDS011;13462;50.764;4.332;2022-07-17T05:30:16;5.53;;;3.45;;
25581;SDS011;13462;50.764;4.332;2022-07-17T05:32:42;7.43;;;3.40;;
25581;SDS011;13462;50.764;4.332;2022-07-17T05:35:07;6.60;;;3.25;;
25581;SDS011;13462;50.764;4.332;2022-07-17T05:37:33;6.93;;;2.45;;
25581;SDS011;13462;50.764;4.332;2022-07-17T05:39:59;11.25;;;2.88;;
25581;SDS011;13462;50.764;4.332;2022-07-17T05:42:24;6.15;;;2.60;;
25581;SDS011;13462;50.764;4.332;2022-07-17T05:44:50;5.63;;;2.60;;
25581;SDS011;13462;50.764;4.332;2022-07-17T05:47:16;9.00;;;2.55;;
25581;SDS011;13462;50.764;4.332;2022-07-17T05:49:41;6.60;;;2.50;;
25581;SDS011;13462;50.764;4.332;2022-07-17T05:52:07;6.93;;;3.00;;
25581;SDS011;13462;50.764;4.332;2022-07-17T05:54:32;5.10;;;2.20;;
25581;SDS011;13462;50.764;4.332;2022-07-17T05:56:59;6.28;;;2.25;;
25581;SDS011;13462;50.764;4.332;2022-07-17T05:59:26;9.02;;;2.50;;
25581;SDS011;13462;50.764;4.332;2022-07-17T06:01:52;5.57;;;2.60;;
25581;SDS011;13462;50.764;4.332;2022-07-17T06:04:17;6.70;;;2.50;;
25581;SDS011;13462;50.764;4.332;2022-07-17T06:06:43;5.30;;;2.40;;
25581;SDS011;13462;50.764;4.332;2022-07-17T06:09:09;6.50;;;2.80;;
25581;SDS011;13462;50.764;4.332;2022-07-17T06:11:34;4.43;;;2.20;;
25581;SDS011;13462;50.764;4.332;2022-07-17T06:14:00;4.63;;;1.98;;
25581;SDS011;13462;50.764;4.332;2022-07-17T06:16:26;8.57;;;2.80;;
25581;SDS011;13462;50.764;4.332;2022-07-17T06:18:51;7.28;;;2.35;;
25581;SDS011;13462;50.764;4.332;2022-07-17T06:21:17;6.22;;;2.33;;
25581;SDS011;13462;50.764;4.332;2022-07-17T06:23:43;7.35;;;2.10;;
25581;SDS011;13462;50.764;4.332;2022-07-17T06:26:08;5.63;;;2.50;;
25581;SDS011;13462;50.764;4.332;2022-07-17T06:28:34;8.48;;;2.92;;
25581;SDS011;13462;50.764;4.332;2022-07-17T06:30:59;8.10;;;2.50;;
25581;SDS011;13462;50.764;4.332;2022-07-17T06:33:25;5.82;;;2.13;;
25581;SDS011;13462;50.764;4.332;2022-07-17T06:35:51;7.50;;;2.10;;
25581;SDS011;13462;50.764;4.332;2022-07-17T06:38:16;5.65;;;1.98;;
25581;SDS011;13462;50.764;4.332;2022-07-17T06:40:42;7.45;;;2.38;;
25581;SDS011;13462;50.764;4.332;2022-07-17T06:43:08;4.88;;;2.08;;
25581;SDS011;13462;50.764;4.332;2022-07-17T06:45:33;8.10;;;2.13;;
25581;SDS011;13462;50.764;4.332;2022-07-17T06:48:00;7.57;;;2.38;;
25581;SDS011;13462;50.764;4.332;2022-07-17T06:50:26;5.38;;;1.85;;
25581;SDS011;13462;50.764;4.332;2022-07-17T06:52:52;7.07;;;2.60;;
25581;SDS011;13462;50.764;4.332;2022-07-17T06:55:17;7.40;;;2.63;;
25581;SDS011;13462;50.764;4.332;2022-07-17T06:57:43;6.60;;;2.30;;
25581;SDS011;13462;50.764;4.332;2022-07-17T07:00:09;9.68;;;2.47;;
25581;SDS011;13462;50.764;4.332;2022-07-17T07:02:35;4.45;;;1.90;;
25581;SDS011;13462;50.764;4.332;2022-07-17T07:05:01;6.15;;;2.35;;
25581;SDS011;13462;50.764;4.332;2022-07-17T07:07:27;5.47;;;2.45;;
25581;SDS011;13462;50.764;4.332;2022-07-17T07:09:53;7.95;;;2.28;;
25581;SDS011;13462;50.764;4.332;2022-07-17T07:12:18;8.30;;;2.92;;
25581;SDS011;13462;50.764;4.332;2022-07-17T07:14:44;6.95;;;2.53;;
25581;SDS011;13462;50.764;4.332;2022-07-17T07:17:09;5.47;;;2.03;;
25581;SDS011;13462;50.764;4.332;2022-07-17T07:19:35;5.53;;;2.53;;
25581;SDS011;13462;50.764;4.332;2022-07-17T07:22:01;5.22;;;2.13;;
25581;SDS011;13462;50.764;4.332;2022-07-17T07:24:26;5.68;;;2.08;;
25581;SDS011;13462;50.764;4.332;2022-07-17T07:26:52;5.55;;;2.38;;
25581;SDS011;13462;50.764;4.332;2022-07-17T07:29:17;6.80;;;2.38;;
25581;SDS011;13462;50.764;4.332;2022-07-17T07:31:43;5.82;;;2.45;;
25581;SDS011;13462;50.764;4.332;2022-07-17T07:34:09;4.43;;;2.10;;
25581;SDS011;13462;50.764;4.332;2022-07-17T07:36:34;4.72;;;2.40;;
25581;SDS011;13462;50.764;4.332;2022-07-17T07:39:00;6.20;;;2.38;;
25581;SDS011;13462;50.764;4.332;2022-07-17T07:41:25;7.15;;;2.35;;
25581;SDS011;13462;50.764;4.332;2022-07-17T07:43:51;6.15;;;2.05;;
25581;SDS011;13462;50.764;4.332;2022-07-17T07:46:17;6.85;;;2.28;;
25581;SDS011;13462;50.764;4.332;2022-07-17T07:48:42;4.00;;;1.98;;
25581;SDS011;13462;50.764;4.332;2022-07-17T07:51:08;4.07;;;1.90;;
25581;SDS011;13462;50.764;4.332;2022-07-17T07:53:34;5.85;;;2.08;;
25581;SDS011;13462;50.764;4.332;2022-07-17T07:55:59;9.00;;;2.47;;
25581;SDS011;13462;50.764;4.332;2022-07-17T07:58:25;4.90;;;1.92;;
25581;SDS011;13462;50.764;4.332;2022-07-17T08:00:50;10.88;;;2.40;;
25581;SDS011;13462;50.764;4.332;2022-07-17T08:03:16;5.00;;;2.20;;
25581;SDS011;13462;50.764;4.332;2022-07-17T08:05:42;3.50;;;1.80;;
25581;SDS011;13462;50.764;4.332;2022-07-17T08:08:08;5.85;;;2.28;;
25581;SDS011;13462;50.764;4.332;2022-07-17T08:10:33;6.22;;;1.98;;
25581;SDS011;13462;50.764;4.332;2022-07-17T08:13:00;8.70;;;2.20;;
25581;SDS011;13462;50.764;4.332;2022-07-17T08:15:25;7.80;;;2.40;;
25581;SDS011;13462;50.764;4.332;2022-07-17T08:17:52;5.53;;;2.03;;
25581;SDS011;13462;50.764;4.332;2022-07-17T08:20:18;7.05;;;2.20;;
25581;SDS011;13462;50.764;4.332;2022-07-17T08:22:45;6.88;;;1.88;;
25581;SDS011;13462;50.764;4.332;2022-07-17T08:25:12;5.53;;;1.80;;
25581;SDS011;13462;50.764;4.332;2022-07-17T08:27:38;7.18;;;1.95;;
25581;SDS011;13462;50.764;4.332;2022-07-17T08:30:05;5.15;;;1.40;;
25581;SDS011;13462;50.764;4.332;2022-07-17T08:32:32;4.80;;;1.83;;
25581;SDS011;13462;50.764;4.332;2022-07-17T08:34:58;5.35;;;1.83;;
25581;SDS011;13462;50.764;4.332;2022-07-17T08:37:24;5.18;;;1.88;;
25581;SDS011;13462;50.764;4.332;2022-07-17T08:39:50;4.40;;;2.00;;
25581;SDS011;13462;50.764;4.332;2022-07-17T08:42:17;4.13;;;1.63;;
25581;SDS011;13462;50.764;4.332;2022-07-17T08:44:43;3.45;;;1.73;;
25581;SDS011;13462;50.764;4.332;2022-07-17T08:47:10;2.63;;;1.30;;
25581;SDS011;13462;50.764;4.332;2022-07-17T08:49:36;5.43;;;2.05;;
25581;SDS011;13462;50.764;4.332;2022-07-17T08:52:14;5.25;;;2.00;;
25581;SDS011;13462;50.764;4.332;2022-07-17T08:54:39;2.88;;;1.80;;
25581;SDS011;13462;50.764;4.332;2022-07-17T08:57:06;6.93;;;2.30;;
25581;SDS011;13462;50.764;4.332;2022-07-17T08:59:32;7.15;;;2.13;;
25581;SDS011;13462;50.764;4.332;2022-07-17T09:01:58;3.97;;;1.88;;
25581;SDS011;13462;50.764;4.332;2022-07-17T09:04:24;5.60;;;1.80;;
25581;SDS011;13462;50.764;4.332;2022-07-17T09:07:03;4.47;;;1.60;;
25581;SDS011;13462;50.764;4.332;2022-07-17T09:09:30;6.38;;;1.90;;
25581;SDS011;13462;50.764;4.332;2022-07-17T09:11:57;4.38;;;1.70;;
25581;SDS011;13462;50.764;4.332;2022-07-17T09:14:38;7.05;;;2.22;;
25581;SDS011;13462;50.764;4.332;2022-07-17T09:17:07;3.85;;;1.60;;
25581;SDS011;13462;50.764;4.332;2022-07-17T09:19:35;3.38;;;1.80;;
25581;SDS011;13462;50.764;4.332;2022-07-17T09:24:42;4.80;;;2.22;;
25581;SDS011;13462;50.764;4.332;2022-07-17T09:27:08;8.45;;;2.65;;
25581;SDS011;13462;50.764;4.332;2022-07-17T09:29:35;6.20;;;2.38;;
25581;SDS011;13462;50.764;4.332;2022-07-17T09:32:39;3.70;;;2.17;;
25581;SDS011;13462;50.764;4.332;2022-07-17T09:35:06;5.38;;;2.00;;
25581;SDS011;13462;50.764;4.332;2022-07-17T09:37:34;3.63;;;2.22;;
25581;SDS011;13462;50.764;4.332;2022-07-17T09:40:01;6.40;;;2.17;;
25581;SDS011;13462;50.764;4.332;2022-07-17T09:42:33;5.78;;;2.28;;
25581;SDS011;13462;50.764;4.332;2022-07-17T09:47:24;4.85;;;2.05;;
25581;SDS011;13462;50.764;4.332;2022-07-17T09:49:54;6.03;;;2.35;;
25581;SDS011;13462;50.764;4.332;2022-07-17T09:52:22;4.57;;;2.17;;
25581;SDS011;13462;50.764;4.332;2022-07-17T09:54:49;6.63;;;2.45;;
25581;SDS011;13462;50.764;4.332;2022-07-17T09:57:17;3.88;;;2.13;;
25581;SDS011;13462;50.764;4.332;2022-07-17T09:59:44;4.40;;;2.25;;
25581;SDS011;13462;50.764;4.332;2022-07-17T10:02:11;4.32;;;2.22;;
25581;SDS011;13462;50.764;4.332;2022-07-17T10:04:38;5.45;;;2.40;;
25581;SDS011;13462;50.764;4.332;2022-07-17T10:07:05;6.68;;;2.28;;
25581;SDS011;13462;50.764;4.332;2022-07-17T10:09:33;7.10;;;2.15;;
25581;SDS011;13462;50.764;4.332;2022-07-17T10:11:59;6.97;;;2.30;;
25581;SDS011;13462;50.764;4.332;2022-07-17T10:14:26;3.90;;;2.33;;
25581;SDS011;13462;50.764;4.332;2022-07-17T10:16:52;3.45;;;1.95;;
25581;SDS011;13462;50.764;4.332;2022-07-17T10:19:19;6.65;;;2.33;;
25581;SDS011;13462;50.764;4.332;2022-07-17T10:21:55;3.08;;;2.20;;
25581;SDS011;13462;50.764;4.332;2022-07-17T10:24:23;5.30;;;2.90;;
25581;SDS011;13462;50.764;4.332;2022-07-17T10:26:50;5.25;;;2.47;;
25581;SDS011;13462;50.764;4.332;2022-07-17T10:29:26;6.18;;;2.15;;
25581;SDS011;13462;50.764;4.332;2022-07-17T10:31:53;6.30;;;2.72;;
25581;SDS011;13462;50.764;4.332;2022-07-17T10:34:22;4.45;;;2.60;;
25581;SDS011;13462;50.764;4.332;2022-07-17T10:37:13;4.00;;;2.40;;
25581;SDS011;13462;50.764;4.332;2022-07-17T10:53:31;4.38;;;2.80;;
25581;SDS011;13462;50.764;4.332;2022-07-17T10:56:04;4.03;;;2.88;;
25581;SDS011;13462;50.764;4.332;2022-07-17T11:06:14;3.15;;;2.20;;
25581;SDS011;13462;50.764;4.332;2022-07-17T11:09:02;8.38;;;2.78;;
25581;SDS011;13462;50.764;4.332;2022-07-17T11:11:42;4.72;;;3.13;;
25581;SDS011;13462;50.764;4.332;2022-07-17T11:16:57;5.97;;;3.67;;
25581;SDS011;13462;50.764;4.332;2022-07-17T11:21:54;4.70;;;3.00;;
25581;SDS011;13462;50.764;4.332;2022-07-17T11:24:22;5.10;;;3.30;;
25581;SDS011;13462;50.764;4.332;2022-07-17T11:26:49;7.50;;;3.25;;
25581;SDS011;13462;50.764;4.332;2022-07-17T11:29:15;5.07;;;2.78;;
25581;SDS011;13462;50.764;4.332;2022-07-17T11:31:41;8.25;;;3.40;;
25581;SDS011;13462;50.764;4.332;2022-07-17T11:34:08;3.80;;;2.60;;
25581;SDS011;13462;50.764;4.332;2022-07-17T11:36:37;4.85;;;2.85;;
25581;SDS011;13462;50.764;4.332;2022-07-17T11:39:05;5.18;;;2.88;;
25581;SDS011;13462;50.764;4.332;2022-07-17T11:41:48;4.53;;;2.78;;
25581;SDS011;13462;50.764;4.332;2022-07-17T11:44:18;7.30;;;3.15;;
25581;SDS011;13462;50.764;4.332;2022-07-17T11:46:47;5.97;;;3.25;;
25581;SDS011;13462;50.764;4.332;2022-07-17T11:49:27;5.07;;;3.45;;
25581;SDS011;13462;50.764;4.332;2022-07-17T11:51:58;5.03;;;2.97;;
25581;SDS011;13462;50.764;4.332;2022-07-17T11:54:25;5.55;;;3.03;;
25581;SDS011;13462;50.764;4.332;2022-07-17T11:56:52;4.35;;;2.65;;
25581;SDS011;13462;50.764;4.332;2022-07-17T11:59:26;5.53;;;4.00;;
25581;SDS011;13462;50.764;4.332;2022-07-17T12:01:53;6.15;;;2.90;;
25581;SDS011;13462;50.764;4.332;2022-07-17T12:04:19;5.13;;;3.15;;
25581;SDS011;13462;50.764;4.332;2022-07-17T12:06:46;4.85;;;2.90;;
25581;SDS011;13462;50.764;4.332;2022-07-17T12:09:25;8.32;;;2.67;;
25581;SDS011;13462;50.764;4.332;2022-07-17T12:11:58;4.63;;;2.60;;
25581;SDS011;13462;50.764;4.332;2022-07-17T12:14:25;4.82;;;2.70;;
25581;SDS011;13462;50.764;4.332;2022-07-17T12:16:50;5.47;;;2.83;;
25581;SDS011;13462;50.764;4.332;2022-07-17T12:19:17;3.60;;;2.42;;
25581;SDS011;13462;50.764;4.332;2022-07-17T12:24:18;4.90;;;2.88;;
25581;SDS011;13462;50.764;4.332;2022-07-17T12:26:45;5.63;;;2.85;;
25581;SDS011;13462;50.764;4.332;2022-07-17T12:29:11;4.20;;;2.83;;
25581;SDS011;13462;50.764;4.332;2022-07-17T12:31:36;5.70;;;3.03;;
25581;SDS011;13462;50.764;4.332;2022-07-17T12:34:02;3.28;;;2.72;;
25581;SDS011;13462;50.764;4.332;2022-07-17T12:36:28;4.43;;;2.80;;
25581;SDS011;13462;50.764;4.332;2022-07-17T12:38:53;3.45;;;2.97;;
25581;SDS011;13462;50.764;4.332;2022-07-17T12:41:19;4.20;;;2.80;;
25581;SDS011;13462;50.764;4.332;2022-07-17T12:43:45;5.13;;;3.20;;
25581;SDS011;13462;50.764;4.332;2022-07-17T12:46:11;5.13;;;2.67;;
25581;SDS011;13462;50.764;4.332;2022-07-17T12:48:36;4.38;;;3.00;;
25581;SDS011;13462;50.764;4.332;2022-07-17T12:51:05;5.18;;;2.50;;
25581;SDS011;13462;50.764;4.332;2022-07-17T12:53:31;7.38;;;3.58;;
25581;SDS011;13462;50.764;4.332;2022-07-17T12:55:57;4.88;;;3.03;;
25581;SDS011;13462;50.764;4.332;2022-07-17T12:58:22;7.93;;;3.00;;
25581;SDS011;13462;50.764;4.332;2022-07-17T13:00:49;6.88;;;2.95;;
25581;SDS011;13462;50.764;4.332;2022-07-17T13:03:15;4.60;;;2.90;;
25581;SDS011;13462;50.764;4.332;2022-07-17T13:05:40;4.93;;;3.03;;
25581;SDS011;13462;50.764;4.332;2022-07-17T13:08:06;5.38;;;3.03;;
25581;SDS011;13462;50.764;4.332;2022-07-17T13:10:33;5.57;;;3.33;;
25581;SDS011;13462;50.764;4.332;2022-07-17T13:12:59;4.78;;;3.45;;
25581;SDS011;13462;50.764;4.332;2022-07-17T13:15:25;3.38;;;2.83;;
25581;SDS011;13462;50.764;4.332;2022-07-17T13:17:50;3.90;;;2.92;;
25581;SDS011;13462;50.764;4.332;2022-07-17T13:20:16;3.53;;;2.90;;
25581;SDS011;13462;50.764;4.332;2022-07-17T13:22:42;3.90;;;2.58;;
25581;SDS011;13462;50.764;4.332;2022-07-17T13:25:07;5.72;;;3.05;;
25581;SDS011;13462;50.764;4.332;2022-07-17T13:27:33;2.95;;;2.60;;
25581;SDS011;13462;50.764;4.332;2022-07-17T13:29:59;4.53;;;2.83;;
25581;SDS011;13462;50.764;4.332;2022-07-17T13:32:25;3.30;;;2.83;;
25581;SDS011;13462;50.764;4.332;2022-07-17T13:34:50;5.25;;;3.30;;
25581;SDS011;13462;50.764;4.332;2022-07-17T13:37:16;7.13;;;3.80;;
25581;SDS011;13462;50.764;4.332;2022-07-17T13:39:41;3.40;;;3.00;;
25581;SDS011;13462;50.764;4.332;2022-07-17T13:42:07;5.20;;;3.22;;
25581;SDS011;13462;50.764;4.332;2022-07-17T13:44:33;3.67;;;2.90;;
25581;SDS011;13462;50.764;4.332;2022-07-17T13:46:59;5.38;;;2.88;;
25581;SDS011;13462;50.764;4.332;2022-07-17T13:49:24;3.38;;;2.70;;
25581;SDS011;13462;50.764;4.332;2022-07-17T13:51:51;5.57;;;2.95;;
25581;SDS011;13462;50.764;4.332;2022-07-17T13:54:16;3.30;;;2.70;;
25581;SDS011;13462;50.764;4.332;2022-07-17T13:56:42;3.90;;;2.78;;
25581;SDS011;13462;50.764;4.332;2022-07-17T13:59:08;4.13;;;2.88;;
25581;SDS011;13462;50.764;4.332;2022-07-17T14:01:33;4.20;;;2.58;;
25581;SDS011;13462;50.764;4.332;2022-07-17T14:04:02;4.55;;;2.80;;
25581;SDS011;13462;50.764;4.332;2022-07-17T14:06:28;3.33;;;2.85;;
25581;SDS011;13462;50.764;4.332;2022-07-17T14:08:53;5.05;;;2.78;;
25581;SDS011;13462;50.764;4.332;2022-07-17T14:11:19;3.10;;;2.70;;
25581;SDS011;13462;50.764;4.332;2022-07-17T14:13:44;3.13;;;2.83;;
25581;SDS011;13462;50.764;4.332;2022-07-17T14:16:10;4.13;;;2.70;;
25581;SDS011;13462;50.764;4.332;2022-07-17T14:18:36;3.33;;;2.70;;
25581;SDS011;13462;50.764;4.332;2022-07-17T14:21:21;3.25;;;2.83;;
25581;SDS011;13462;50.764;4.332;2022-07-17T14:23:47;3.58;;;2.50;;
25581;SDS011;13462;50.764;4.332;2022-07-17T14:26:12;4.90;;;2.58;;
25581;SDS011;13462;50.764;4.332;2022-07-17T14:28:38;4.88;;;2.50;;
25581;SDS011;13462;50.764;4.332;2022-07-17T14:31:04;3.15;;;2.50;;
25581;SDS011;13462;50.764;4.332;2022-07-17T14:33:29;3.70;;;2.28;;
25581;SDS011;13462;50.764;4.332;2022-07-17T14:35:55;3.85;;;2.45;;
25581;SDS011;13462;50.764;4.332;2022-07-17T14:38:20;4.88;;;2.40;;
25581;SDS011;13462;50.764;4.332;2022-07-17T14:40:46;2.70;;;2.30;;
25581;SDS011;13462;50.764;4.332;2022-07-17T14:43:12;2.75;;;2.40;;
25581;SDS011;13462;50.764;4.332;2022-07-17T14:45:37;2.55;;;2.20;;
25581;SDS011;13462;50.764;4.332;2022-07-17T14:48:03;3.38;;;2.20;;
25581;SDS011;13462;50.764;4.332;2022-07-17T14:50:29;2.33;;;2.13;;
25581;SDS011;13462;50.764;4.332;2022-07-17T14:52:54;3.30;;;2.30;;
25581;SDS011;13462;50.764;4.332;2022-07-17T14:55:20;3.22;;;2.28;;
25581;SDS011;13462;50.764;4.332;2022-07-17T14:57:45;3.10;;;2.28;;
25581;SDS011;13462;50.764;4.332;2022-07-17T15:00:11;2.60;;;1.88;;
25581;SDS011;13462;50.764;4.332;2022-07-17T15:02:39;3.00;;;2.20;;
25581;SDS011;13462;50.764;4.332;2022-07-17T15:05:06;6.00;;;2.30;;
25581;SDS011;13462;50.764;4.332;2022-07-17T15:07:32;4.00;;;2.13;;
25581;SDS011;13462;50.764;4.332;2022-07-17T15:09:58;4.60;;;1.90;;
25581;SDS011;13462;50.764;4.332;2022-07-17T15:12:23;2.85;;;2.50;;
25581;SDS011;13462;50.764;4.332;2022-07-17T15:14:49;4.95;;;2.20;;
25581;SDS011;13462;50.764;4.332;2022-07-17T15:17:15;2.05;;;1.90;;
25581;SDS011;13462;50.764;4.332;2022-07-17T15:19:41;3.28;;;2.03;;
25581;SDS011;13462;50.764;4.332;2022-07-17T15:22:06;3.45;;;2.00;;